sensor_id;sensor_type;location;lat;lon;timestamp;P1;durP1;ratioP1;P2;durP2;ratioP2
71162;SDS011;58858;50.948;6.566;2023-12-20T00:08:15;11.57;;;7.93;;
71162;SDS011;58858;50.948;6.566;2023-12-20T00:18:16;12.80;;;9.68;;
71162;SDS011;58858;50.948;6.566;2023-12-20T00:28:18;14.88;;;9.55;;
71162;SDS011;58858;50.948;6.566;2023-12-20T00:38:19;15.40;;;10.43;;
71162;SDS011;58858;50.948;6.566;2023-12-20T00:48:20;14.50;;;9.43;;
71162;SDS011;58858;50.948;6.566;2023-12-20T00:58:21;12.15;;;8.85;;
71162;SDS011;58858;50.948;6.566;2023-12-20T01:08:22;18.20;;;10.60;;
71162;SDS011;58858;50.948;6.566;2023-12-20T01:18:23;14.13;;;9.30;;
71162;SDS011;58858;50.948;6.566;2023-12-20T01:28:24;10.75;;;5.60;;
71162;SDS011;58858;50.948;6.566;2023-12-20T01:38:25;9.05;;;4.75;;
71162;SDS011;58858;50.948;6.566;2023-12-20T01:48:27;11.93;;;4.45;;
71162;SDS011;58858;50.948;6.566;2023-12-20T01:58:28;10.85;;;3.85;;
71162;SDS011;58858;50.948;6.566;2023-12-20T02:08:29;7.25;;;2.90;;
71162;SDS011;58858;50.948;6.566;2023-12-20T02:18:30;15.02;;;3.55;;
71162;SDS011;58858;50.948;6.566;2023-12-20T02:28:31;5.95;;;2.85;;
71162;SDS011;58858;50.948;6.566;2023-12-20T02:38:32;16.08;;;3.35;;
71162;SDS011;58858;50.948;6.566;2023-12-20T02:48:34;13.75;;;3.08;;
71162;SDS011;58858;50.948;6.566;2023-12-20T02:58:35;19.10;;;4.32;;
71162;SDS011;58858;50.948;6.566;2023-12-20T03:08:36;9.07;;;2.58;;
71162;SDS011;58858;50.948;6.566;2023-12-20T03:18:39;16.35;;;3.50;;
71162;SDS011;58858;50.948;6.566;2023-12-20T03:28:40;6.97;;;2.35;;
71162;SDS011;58858;50.948;6.566;2023-12-20T03:38:41;10.65;;;3.58;;
71162;SDS011;58858;50.948;6.566;2023-12-20T03:48:42;12.80;;;3.95;;
71162;SDS011;58858;50.948;6.566;2023-12-20T03:58:45;21.25;;;3.28;;
71162;SDS011;58858;50.948;6.566;2023-12-20T04:08:46;15.18;;;4.32;;
71162;SDS011;58858;50.948;6.566;2023-12-20T04:18:47;14.07;;;4.55;;
71162;SDS011;58858;50.948;6.566;2023-12-20T04:28:48;19.58;;;4.13;;
71162;SDS011;58858;50.948;6.566;2023-12-20T04:38:49;9.73;;;3.00;;
71162;SDS011;58858;50.948;6.566;2023-12-20T04:48:50;12.85;;;3.83;;
71162;SDS011;58858;50.948;6.566;2023-12-20T04:58:54;11.90;;;4.38;;
71162;SDS011;58858;50.948;6.566;2023-12-20T05:08:55;11.35;;;4.43;;
71162;SDS011;58858;50.948;6.566;2023-12-20T05:18:56;12.88;;;4.22;;
71162;SDS011;58858;50.948;6.566;2023-12-20T05:28:57;13.60;;;4.13;;
71162;SDS011;58858;50.948;6.566;2023-12-20T05:38:58;13.90;;;5.15;;
71162;SDS011;58858;50.948;6.566;2023-12-20T05:48:59;19.20;;;5.82;;
71162;SDS011;58858;50.948;6.566;2023-12-20T05:59:00;18.75;;;3.90;;
71162;SDS011;58858;50.948;6.566;2023-12-20T06:09:01;9.45;;;2.90;;
71162;SDS011;58858;50.948;6.566;2023-12-20T06:19:03;10.57;;;3.45;;
71162;SDS011;58858;50.948;6.566;2023-12-20T06:29:04;17.17;;;3.60;;
71162;SDS011;58858;50.948;6.566;2023-12-20T06:39:05;15.23;;;3.30;;
71162;SDS011;58858;50.948;6.566;2023-12-20T06:49:06;11.07;;;4.20;;
71162;SDS011;58858;50.948;6.566;2023-12-20T06:59:07;12.98;;;4.93;;
71162;SDS011;58858;50.948;6.566;2023-12-20T07:09:08;15.32;;;4.15;;
71162;SDS011;58858;50.948;6.566;2023-12-20T07:19:11;22.90;;;4.82;;
71162;SDS011;58858;50.948;6.566;2023-12-20T07:29:12;14.48;;;3.42;;
71162;SDS011;58858;50.948;6.566;2023-12-20T07:39:13;8.50;;;3.55;;
71162;SDS011;58858;50.948;6.566;2023-12-20T07:49:16;15.68;;;4.00;;
71162;SDS011;58858;50.948;6.566;2023-12-20T07:59:17;23.35;;;4.95;;
71162;SDS011;58858;50.948;6.566;2023-12-20T08:09:18;25.10;;;5.88;;
71162;SDS011;58858;50.948;6.566;2023-12-20T08:19:20;17.38;;;3.60;;
71162;SDS011;58858;50.948;6.566;2023-12-20T08:29:21;18.23;;;3.78;;
71162;SDS011;58858;50.948;6.566;2023-12-20T08:39:22;11.18;;;3.30;;
71162;SDS011;58858;50.948;6.566;2023-12-20T08:49:26;16.20;;;3.93;;
71162;SDS011;58858;50.948;6.566;2023-12-20T08:59:28;11.65;;;3.97;;
71162;SDS011;58858;50.948;6.566;2023-12-20T09:09:29;19.38;;;4.38;;
71162;SDS011;58858;50.948;6.566;2023-12-20T09:19:32;14.45;;;3.72;;
71162;SDS011;58858;50.948;6.566;2023-12-20T09:29:33;17.45;;;4.90;;
71162;SDS011;58858;50.948;6.566;2023-12-20T09:39:34;9.57;;;2.83;;
71162;SDS011;58858;50.948;6.566;2023-12-20T09:49:35;13.32;;;3.30;;
71162;SDS011;58858;50.948;6.566;2023-12-20T09:59:37;15.43;;;4.65;;
71162;SDS011;58858;50.948;6.566;2023-12-20T10:09:38;16.58;;;3.65;;
71162;SDS011;58858;50.948;6.566;2023-12-20T10:19:39;13.25;;;3.10;;
71162;SDS011;58858;50.948;6.566;2023-12-20T10:29:40;11.75;;;3.13;;
71162;SDS011;58858;50.948;6.566;2023-12-20T10:39:42;17.05;;;3.78;;
71162;SDS011;58858;50.948;6.566;2023-12-20T10:49:43;15.15;;;4.25;;
71162;SDS011;58858;50.948;6.566;2023-12-20T10:59:46;13.93;;;3.65;;
71162;SDS011;58858;50.948;6.566;2023-12-20T11:09:57;20.42;;;3.90;;
71162;SDS011;58858;50.948;6.566;2023-12-20T11:30:02;9.85;;;3.03;;
71162;SDS011;58858;50.948;6.566;2023-12-20T11:40:07;13.38;;;3.55;;
71162;SDS011;58858;50.948;6.566;2023-12-20T11:50:10;8.15;;;2.58;;
71162;SDS011;58858;50.948;6.566;2023-12-20T12:00:11;15.82;;;4.18;;
71162;SDS011;58858;50.948;6.566;2023-12-20T12:10:13;11.73;;;3.85;;
71162;SDS011;58858;50.948;6.566;2023-12-20T12:20:14;18.48;;;3.97;;
71162;SDS011;58858;50.948;6.566;2023-12-20T12:30:15;8.88;;;2.83;;
71162;SDS011;58858;50.948;6.566;2023-12-20T12:40:18;13.75;;;4.22;;
71162;SDS011;58858;50.948;6.566;2023-12-20T12:50:20;12.93;;;4.43;;
71162;SDS011;58858;50.948;6.566;2023-12-20T13:00:22;10.13;;;2.92;;
71162;SDS011;58858;50.948;6.566;2023-12-20T13:10:23;14.40;;;5.22;;
71162;SDS011;58858;50.948;6.566;2023-12-20T13:20:24;13.45;;;3.88;;
71162;SDS011;58858;50.948;6.566;2023-12-20T13:30:25;15.07;;;3.38;;
71162;SDS011;58858;50.948;6.566;2023-12-20T13:40:27;13.40;;;3.20;;
71162;SDS011;58858;50.948;6.566;2023-12-20T13:50:29;16.95;;;3.70;;
71162;SDS011;58858;50.948;6.566;2023-12-20T14:00:30;12.07;;;3.70;;
71162;SDS011;58858;50.948;6.566;2023-12-20T14:10:31;11.32;;;3.92;;
71162;SDS011;58858;50.948;6.566;2023-12-20T14:20:35;14.75;;;4.90;;
71162;SDS011;58858;50.948;6.566;2023-12-20T14:30:36;14.63;;;4.55;;
71162;SDS011;58858;50.948;6.566;2023-12-20T14:40:38;12.95;;;4.15;;
71162;SDS011;58858;50.948;6.566;2023-12-20T14:50:39;12.35;;;3.33;;
71162;SDS011;58858;50.948;6.566;2023-12-20T15:00:43;9.63;;;3.35;;
71162;SDS011;58858;50.948;6.566;2023-12-20T15:10:45;13.75;;;3.88;;
71162;SDS011;58858;50.948;6.566;2023-12-20T15:20:47;24.35;;;4.32;;
71162;SDS011;58858;50.948;6.566;2023-12-20T15:30:48;15.95;;;5.13;;
71162;SDS011;58858;50.948;6.566;2023-12-20T15:40:49;11.82;;;4.68;;
71162;SDS011;58858;50.948;6.566;2023-12-20T15:50:50;12.68;;;3.92;;
71162;SDS011;58858;50.948;6.566;2023-12-20T16:00:52;10.05;;;4.80;;
71162;SDS011;58858;50.948;6.566;2023-12-20T16:10:53;13.25;;;4.03;;
71162;SDS011;58858;50.948;6.566;2023-12-20T16:20:54;10.43;;;5.18;;
71162;SDS011;58858;50.948;6.566;2023-12-20T16:30:55;11.23;;;4.45;;
71162;SDS011;58858;50.948;6.566;2023-12-20T16:40:56;12.75;;;4.00;;
71162;SDS011;58858;50.948;6.566;2023-12-20T16:50:57;13.95;;;4.97;;
71162;SDS011;58858;50.948;6.566;2023-12-20T17:00:58;15.20;;;4.97;;
71162;SDS011;58858;50.948;6.566;2023-12-20T17:10:59;12.68;;;4.78;;
71162;SDS011;58858;50.948;6.566;2023-12-20T17:21:00;19.48;;;4.90;;
71162;SDS011;58858;50.948;6.566;2023-12-20T17:31:01;18.10;;;5.38;;
71162;SDS011;58858;50.948;6.566;2023-12-20T17:41:03;17.40;;;3.35;;
71162;SDS011;58858;50.948;6.566;2023-12-20T17:51:04;15.10;;;4.68;;
71162;SDS011;58858;50.948;6.566;2023-12-20T18:01:05;15.13;;;4.18;;
71162;SDS011;58858;50.948;6.566;2023-12-20T18:11:06;10.40;;;3.60;;
71162;SDS011;58858;50.948;6.566;2023-12-20T18:21:07;13.48;;;3.35;;
71162;SDS011;58858;50.948;6.566;2023-12-20T18:31:08;10.35;;;3.00;;
71162;SDS011;58858;50.948;6.566;2023-12-20T18:41:09;9.13;;;4.57;;
71162;SDS011;58858;50.948;6.566;2023-12-20T18:51:14;10.73;;;4.18;;
71162;SDS011;58858;50.948;6.566;2023-12-20T19:01:15;10.40;;;4.45;;
71162;SDS011;58858;50.948;6.566;2023-12-20T19:11:17;20.20;;;5.32;;
71162;SDS011;58858;50.948;6.566;2023-12-20T19:21:18;13.18;;;4.10;;
71162;SDS011;58858;50.948;6.566;2023-12-20T19:31:21;6.95;;;3.38;;
71162;SDS011;58858;50.948;6.566;2023-12-20T19:41:22;9.90;;;3.85;;
71162;SDS011;58858;50.948;6.566;2023-12-20T19:51:23;11.32;;;4.45;;
71162;SDS011;58858;50.948;6.566;2023-12-20T20:01:25;10.38;;;4.40;;
71162;SDS011;58858;50.948;6.566;2023-12-20T20:11:26;11.93;;;4.22;;
71162;SDS011;58858;50.948;6.566;2023-12-20T20:21:27;12.40;;;3.55;;
71162;SDS011;58858;50.948;6.566;2023-12-20T20:31:28;7.35;;;3.70;;
71162;SDS011;58858;50.948;6.566;2023-12-20T20:41:34;8.75;;;2.65;;
71162;SDS011;58858;50.948;6.566;2023-12-20T20:51:35;9.45;;;3.58;;
71162;SDS011;58858;50.948;6.566;2023-12-20T21:01:36;8.20;;;3.25;;
71162;SDS011;58858;50.948;6.566;2023-12-20T21:11:37;9.30;;;4.05;;
71162;SDS011;58858;50.948;6.566;2023-12-20T21:21:39;5.65;;;3.03;;
71162;SDS011;58858;50.948;6.566;2023-12-20T21:31:40;8.75;;;3.60;;
71162;SDS011;58858;50.948;6.566;2023-12-20T21:41:41;9.15;;;3.40;;
71162;SDS011;58858;50.948;6.566;2023-12-20T21:51:42;9.82;;;4.40;;
71162;SDS011;58858;50.948;6.566;2023-12-20T22:01:43;12.77;;;2.72;;
71162;SDS011;58858;50.948;6.566;2023-12-20T22:11:44;9.45;;;3.25;;
71162;SDS011;58858;50.948;6.566;2023-12-20T22:21:45;5.10;;;3.67;;
71162;SDS011;58858;50.948;6.566;2023-12-20T22:31:46;8.77;;;3.88;;
71162;SDS011;58858;50.948;6.566;2023-12-20T22:41:47;5.95;;;3.00;;
71162;SDS011;58858;50.948;6.566;2023-12-20T22:51:48;4.63;;;2.40;;
71162;SDS011;58858;50.948;6.566;2023-12-20T23:01:49;4.47;;;2.33;;
71162;SDS011;58858;50.948;6.566;2023-12-20T23:11:51;6.35;;;2.17;;
71162;SDS011;58858;50.948;6.566;2023-12-20T23:21:52;7.22;;;2.47;;
71162;SDS011;58858;50.948;6.566;2023-12-20T23:31:53;4.05;;;1.80;;
71162;SDS011;58858;50.948;6.566;2023-12-20T23:41:54;2.22;;;1.50;;
71162;SDS011;58858;50.948;6.566;2023-12-20T23:51:56;3.30;;;1.90;;
